Time;durP1;ratioP1;P1;durP2;ratioP2;P2;SDS_P1;SDS_P2;PMS_P1;PMS_P2;Temp;Humidity;BMP_temperature;BMP_pressure;BME280_temperature;BME280_humidity;BME280_pressure;Samples;Min_cycle;Max_cycle;Signal;HPM_P1;HPM_P2
2022/10/30 00:00:30;;;;;;;8.40;4.18;;;18.10;72.70;;;;;;5051564;28;20095;-72
2022/10/30 00:02:56;;;;;;;10.23;4.28;;;18.10;72.70;;;;;;5051230;28;20070;-69
2022/10/30 00:05:22;;;;;;;8.98;4.53;;;18.10;72.90;;;;;;5051877;28;20114;-68
2022/10/30 00:07:48;;;;;;;7.28;3.85;;;18.10;72.90;;;;;;5051673;28;20108;-68
2022/10/30 00:10:15;;;;;;;7.32;3.67;;;18.00;72.90;;;;;;5051589;28;20028;-69
2022/10/30 00:12:40;;;;;;;7.35;3.78;;;18.00;72.90;;;;;;5050777;28;20107;-68
2022/10/30 00:15:06;;;;;;;8.57;4.00;;;18.00;73.00;;;;;;5051879;28;20593;-68
2022/10/30 00:17:33;;;;;;;7.32;4.25;;;18.00;72.90;;;;;;5051717;28;20113;-69
2022/10/30 00:19:58;;;;;;;10.25;4.53;;;18.00;73.00;;;;;;5051030;28;20364;-68
2022/10/30 00:22:24;;;;;;;11.00;4.68;;;18.00;73.00;;;;;;5050463;28;20017;-69
2022/10/30 00:24:50;;;;;;;8.60;4.50;;;17.90;72.90;;;;;;5051439;28;20631;-69
2022/10/30 00:27:16;;;;;;;9.27;4.68;;;17.90;73.10;;;;;;5051035;28;20025;-68
2022/10/30 00:29:41;;;;;;;10.57;4.80;;;17.90;73.10;;;;;;5050717;28;20067;-68
2022/10/30 00:32:07;;;;;;;9.77;4.88;;;17.90;73.20;;;;;;5050890;28;20025;-69
2022/10/30 00:34:33;;;;;;;10.45;4.63;;;17.90;73.30;;;;;;5049801;28;20063;-69
2022/10/30 00:36:58;;;;;;;9.55;4.60;;;17.80;73.20;;;;;;5050557;28;20017;-68
2022/10/30 00:39:24;;;;;;;7.80;4.30;;;17.80;73.20;;;;;;5049195;28;20036;-69
2022/10/30 00:41:50;;;;;;;9.43;4.60;;;17.80;73.40;;;;;;5051243;28;20100;-69
2022/10/30 00:44:33;;;;;;;11.65;4.57;;;17.80;73.40;;;;;;5051586;28;20079;-69
2022/10/30 00:47:03;;;;;;;14.35;5.15;;;17.80;73.50;;;;;;5051496;28;20063;-69
2022/10/30 00:49:32;;;;;;;10.60;5.47;;;17.70;73.50;;;;;;5051647;28;20063;-69
2022/10/30 00:51:59;;;;;;;9.50;4.55;;;17.70;73.60;;;;;;5051746;28;20148;-69
2022/10/30 00:54:25;;;;;;;10.57;4.57;;;17.70;73.70;;;;;;5051724;28;20021;-68
2022/10/30 00:56:51;;;;;;;8.35;4.53;;;17.60;73.70;;;;;;5050616;28;20104;-69
2022/10/30 00:59:23;;;;;;;9.60;5.20;;;17.60;73.80;;;;;;5049950;28;20047;-70
2022/10/30 01:01:49;;;;;;;8.27;4.95;;;17.60;73.80;;;;;;5051620;28;20029;-70
2022/10/30 01:04:16;;;;;;;12.43;5.53;;;17.60;73.90;;;;;;5051470;28;20057;-70
2022/10/30 01:06:47;;;;;;;10.63;5.35;;;17.50;73.90;;;;;;5050145;28;20056;-70
2022/10/30 01:09:13;;;;;;;10.27;5.00;;;17.50;74.00;;;;;;5051091;28;20040;-69
2022/10/30 01:11:39;;;;;;;9.18;4.78;;;17.50;74.20;;;;;;5049893;28;20021;-69
2022/10/30 01:14:07;;;;;;;9.07;4.78;;;17.50;74.20;;;;;;5050957;28;20018;-68
2022/10/30 01:16:51;;;;;;;8.00;4.22;;;17.50;74.30;;;;;;5049650;28;20048;-68
2022/10/30 01:19:33;;;;;;;9.68;4.90;;;17.40;74.30;;;;;;5051170;28;20131;-68
2022/10/30 01:22:17;;;;;;;;;;;17.40;74.40;;;;;;5051220;28;20027;-68
2022/10/30 01:25:17;;;;;;;10.05;5.07;;;17.40;74.40;;;;;;5050865;28;19911;-68
2022/10/30 01:27:51;;;;;;;8.45;5.00;;;17.30;74.60;;;;;;5049352;28;20074;-68
2022/10/30 01:30:45;;;;;;;9.02;5.85;;;17.30;74.70;;;;;;5050816;28;20103;-68
2022/10/30 01:33:21;;;;;;;10.18;5.30;;;17.30;74.80;;;;;;5050740;28;20021;-68
2022/10/30 01:36:02;;;;;;;12.50;5.22;;;17.30;74.90;;;;;;5050567;28;20215;-68
2022/10/30 01:38:34;;;;;;;9.52;4.30;;;17.20;74.90;;;;;;5049423;28;20529;-68
2022/10/30 01:41:00;;;;;;;8.13;5.10;;;17.20;75.00;;;;;;5050489;28;20021;-69
2022/10/30 01:43:25;;;;;;;8.23;4.32;;;17.20;75.00;;;;;;5045322;28;20146;-69
2022/10/30 01:46:06;;;;;;;8.13;4.95;;;17.20;75.00;;;;;;5050106;28;20025;-68
2022/10/30 01:49:00;;;;;;;8.50;3.90;;;17.20;75.10;;;;;;5049906;28;20056;-68
2022/10/30 01:51:47;;;;;;;9.68;4.85;;;17.20;75.10;;;;;;5050510;28;20483;-68
2022/10/30 01:54:36;;;;;;;10.15;5.00;;;17.20;75.10;;;;;;5033945;28;20051;-68
2022/10/30 01:57:21;;;;;;;12.02;5.28;;;17.10;75.10;;;;;;5050024;28;20495;-68
2022/10/30 01:59:52;;;;;;;10.52;5.10;;;17.10;75.30;;;;;;5048959;28;20395;-68
2022/10/30 02:02:18;;;;;;;7.82;5.07;;;17.10;75.30;;;;;;5050136;28;20033;-68
2022/10/30 02:04:44;;;;;;;8.45;4.97;;;17.10;75.40;;;;;;5049970;28;20082;-69
2022/10/30 02:07:11;;;;;;;8.48;5.13;;;17.10;75.40;;;;;;5050011;28;20029;-69
2022/10/30 02:09:37;;;;;;;10.38;4.93;;;17.10;75.50;;;;;;5049399;28;20028;-69
2022/10/30 02:12:04;;;;;;;6.72;4.35;;;17.00;75.50;;;;;;5049500;28;20061;-69
2022/10/30 02:14:35;;;;;;;6.85;4.75;;;17.00;75.50;;;;;;5050053;28;20017;-69
2022/10/30 02:17:03;;;;;;;13.10;5.00;;;17.10;75.50;;;;;;5049520;28;20017;-69
2022/10/30 02:19:28;;;;;;;11.38;5.47;;;17.00;75.70;;;;;;5049786;28;20048;-69
2022/10/30 02:21:54;;;;;;;7.88;4.78;;;17.10;75.60;;;;;;5049599;28;20068;-69
2022/10/30 02:24:20;;;;;;;10.70;5.40;;;17.00;75.60;;;;;;5049847;28;20039;-69
2022/10/30 02:26:45;;;;;;;8.07;4.65;;;17.00;75.60;;;;;;5049482;28;20128;-69
2022/10/30 02:29:12;;;;;;;10.82;5.63;;;17.00;75.70;;;;;;5048482;28;20120;-69
2022/10/30 02:31:37;;;;;;;10.82;5.13;;;16.90;75.80;;;;;;5049356;28;20083;-69
2022/10/30 02:34:03;;;;;;;9.70;5.40;;;16.90;75.90;;;;;;5049343;28;20013;-69
2022/10/30 02:36:29;;;;;;;8.50;5.55;;;16.90;75.90;;;;;;5049841;28;20021;-69
2022/10/30 02:38:54;;;;;;;9.30;5.00;;;16.90;75.90;;;;;;5049352;28;20029;-69
2022/10/30 02:41:21;;;;;;;10.90;5.55;;;16.90;76.00;;;;;;5049826;28;20021;-69
2022/10/30 02:43:47;;;;;;;10.30;5.70;;;16.90;76.00;;;;;;5049294;28;20021;-69
2022/10/30 02:46:12;;;;;;;10.73;6.05;;;16.90;76.10;;;;;;5049831;28;20036;-69
2022/10/30 02:48:38;;;;;;;10.95;5.20;;;16.90;76.20;;;;;;5049388;28;20033;-69
2022/10/30 02:51:04;;;;;;;10.43;4.95;;;16.80;76.20;;;;;;5049502;28;20029;-69
2022/10/30 02:53:30;;;;;;;13.75;6.47;;;16.90;76.20;;;;;;5049510;28;20018;-69
2022/10/30 02:55:55;;;;;;;8.75;5.25;;;16.80;76.20;;;;;;5049716;28;20079;-69
2022/10/30 02:58:21;;;;;;;10.02;5.78;;;16.80;76.20;;;;;;5047924;28;20559;-69
2022/10/30 03:00:46;;;;;;;14.20;6.70;;;16.80;76.30;;;;;;5049318;28;20107;-69
2022/10/30 03:03:12;;;;;;;12.68;6.05;;;16.80;76.30;;;;;;5048295;28;20438;-69
2022/10/30 03:05:38;;;;;;;14.15;6.57;;;16.80;76.40;;;;;;5048210;28;20454;-69
2022/10/30 03:08:03;;;;;;;12.50;5.90;;;16.70;76.50;;;;;;5049287;28;20063;-69
2022/10/30 03:10:29;;;;;;;11.25;6.25;;;16.70;76.50;;;;;;5048166;28;20466;-69
2022/10/30 03:12:54;;;;;;;9.88;5.07;;;16.70;76.60;;;;;;5049307;28;20530;-69
2022/10/30 03:15:20;;;;;;;8.27;5.28;;;16.70;76.60;;;;;;5048953;28;20051;-69
2022/10/30 03:17:45;;;;;;;8.88;4.65;;;16.80;76.70;;;;;;5048385;28;20033;-69
2022/10/30 03:20:11;;;;;;;11.02;5.43;;;16.70;76.60;;;;;;5049521;28;20043;-69
2022/10/30 03:22:37;;;;;;;9.93;4.85;;;16.70;76.70;;;;;;5049487;28;20029;-68
2022/10/30 03:25:03;;;;;;;8.90;5.22;;;16.70;76.70;;;;;;5049389;28;20029;-68
2022/10/30 03:27:28;;;;;;;10.07;5.13;;;16.70;76.80;;;;;;5049039;28;20387;-68
2022/10/30 03:29:54;;;;;;;11.68;5.63;;;16.70;76.80;;;;;;5048507;28;20031;-68
2022/10/30 03:32:19;;;;;;;8.10;5.22;;;16.60;76.80;;;;;;5049170;28;20108;-68
2022/10/30 03:34:45;;;;;;;11.48;6.05;;;16.60;76.90;;;;;;5049428;28;20033;-68
2022/10/30 03:37:10;;;;;;;9.90;5.90;;;16.60;77.00;;;;;;5049198;28;20040;-68
2022/10/30 03:39:36;;;;;;;13.88;6.53;;;16.60;77.00;;;;;;5048936;28;20052;-68
2022/10/30 03:42:01;;;;;;;10.93;6.30;;;16.60;77.20;;;;;;5049005;28;20108;-68
2022/10/30 03:44:27;;;;;;;10.20;5.95;;;16.50;77.30;;;;;;5048986;28;20025;-68
2022/10/30 03:46:52;;;;;;;10.95;6.20;;;16.50;77.40;;;;;;5050723;28;20045;-68
2022/10/30 03:49:18;;;;;;;11.20;6.50;;;16.50;77.40;;;;;;5052484;28;20075;-68
2022/10/30 03:51:43;;;;;;;9.75;5.88;;;16.40;77.50;;;;;;5052369;28;20075;-68
2022/10/30 03:54:09;;;;;;;9.13;5.72;;;16.40;77.50;;;;;;5052412;28;20010;-68
2022/10/30 03:56:34;;;;;;;11.65;5.80;;;16.40;77.60;;;;;;5052470;28;20496;-68
2022/10/30 03:59:00;;;;;;;9.70;6.43;;;16.40;77.50;;;;;;5051207;28;20028;-68
2022/10/30 04:01:25;;;;;;;6.93;5.10;;;16.40;77.70;;;;;;5052528;28;20554;-68
2022/10/30 04:03:51;;;;;;;8.93;5.22;;;16.40;77.70;;;;;;5052586;28;20025;-68
2022/10/30 04:06:16;;;;;;;9.82;5.53;;;16.40;77.70;;;;;;5052357;28;20033;-68
2022/10/30 04:08:42;;;;;;;9.20;5.38;;;16.40;77.70;;;;;;5052148;28;20033;-68
2022/10/30 04:11:11;;;;;;;7.97;5.28;;;16.40;77.70;;;;;;5051768;28;20041;-67
2022/10/30 04:13:37;;;;;;;8.55;5.28;;;16.40;77.70;;;;;;5052071;28;20511;-67
2022/10/30 04:16:03;;;;;;;8.90;5.38;;;16.40;77.60;;;;;;5052020;28;20104;-67
2022/10/30 04:18:28;;;;;;;11.95;4.93;;;16.40;77.70;;;;;;5052117;28;20099;-67
2022/10/30 04:20:54;;;;;;;10.98;4.80;;;16.40;77.70;;;;;;5052064;28;20483;-68
2022/10/30 04:23:21;;;;;;;7.93;5.00;;;16.40;77.70;;;;;;5051903;28;20055;-68
2022/10/30 04:25:47;;;;;;;7.20;4.90;;;16.40;77.70;;;;;;5052068;28;20074;-68
2022/10/30 04:28:13;;;;;;;11.57;5.97;;;16.40;77.80;;;;;;5051427;28;20021;-68
2022/10/30 04:30:39;;;;;;;10.15;5.55;;;16.40;77.90;;;;;;5050421;28;20029;-68
2022/10/30 04:33:07;;;;;;;7.80;5.07;;;16.30;77.90;;;;;;5051552;28;20041;-68
2022/10/30 04:35:35;;;;;;;11.38;5.35;;;16.30;77.90;;;;;;5051525;28;20017;-68
2022/10/30 04:38:06;;;;;;;13.98;5.95;;;16.30;77.90;;;;;;5035132;28;20009;-68
2022/10/30 04:40:35;;;;;;;9.82;6.22;;;16.30;77.90;;;;;;5051853;28;20059;-68
2022/10/30 04:43:02;;;;;;;8.55;4.95;;;16.30;78.00;;;;;;5051536;28;20017;-68
2022/10/30 04:45:27;;;;;;;10.00;5.65;;;16.30;78.10;;;;;;5051416;28;20022;-68
2022/10/30 04:48:02;;;;;;;8.90;5.55;;;16.30;78.10;;;;;;5051424;28;20033;-68
2022/10/30 04:50:29;;;;;;;11.80;5.32;;;16.30;78.20;;;;;;5051344;28;20020;-68
2022/10/30 04:53:02;;;;;;;10.27;4.55;;;16.20;78.20;;;;;;5051281;28;20113;-69
2022/10/30 04:55:28;;;;;;;11.15;5.50;;;16.20;78.20;;;;;;5049884;28;20036;-69
2022/10/30 04:57:56;;;;;;;8.35;4.90;;;16.20;78.20;;;;;;5050652;28;20108;-69
2022/10/30 05:00:21;;;;;;;9.63;5.35;;;16.10;78.30;;;;;;5051155;28;20017;-69
2022/10/30 05:02:47;;;;;;;9.00;5.13;;;16.10;78.50;;;;;;5051423;28;20029;-69
2022/10/30 05:05:12;;;;;;;10.18;5.03;;;16.10;78.60;;;;;;5051090;28;20033;-69
2022/10/30 05:07:38;;;;;;;7.97;4.88;;;16.00;78.60;;;;;;5049649;28;20120;-69
2022/10/30 05:10:04;;;;;;;7.28;4.47;;;16.00;78.60;;;;;;5051065;28;20031;-68
2022/10/30 05:12:29;;;;;;;9.20;4.75;;;16.00;78.70;;;;;;5049631;28;20035;-69
2022/10/30 05:14:55;;;;;;;8.82;4.90;;;16.00;78.70;;;;;;5051047;28;20060;-69
2022/10/30 05:17:20;;;;;;;8.88;4.88;;;16.00;78.70;;;;;;5050970;28;20049;-69
2022/10/30 05:19:46;;;;;;;7.60;4.50;;;16.00;79.30;;;;;;5050899;28;20460;-68
2022/10/30 05:22:12;;;;;;;6.80;4.60;;;16.10;78.60;;;;;;5050872;28;20036;-69
2022/10/30 05:24:37;;;;;;;8.18;4.57;;;16.00;78.50;;;;;;5050986;28;20048;-68
2022/10/30 05:27:03;;;;;;;9.35;4.18;;;16.10;78.60;;;;;;5050664;28;20506;-68
2022/10/30 05:29:28;;;;;;;7.03;4.60;;;16.00;78.50;;;;;;5049617;28;20029;-68
2022/10/30 05:31:54;;;;;;;5.70;4.00;;;16.00;78.70;;;;;;5050563;28;20017;-68
2022/10/30 05:34:19;;;;;;;7.75;4.68;;;15.90;78.90;;;;;;5050701;28;20626;-68
2022/10/30 05:36:45;;;;;;;6.60;4.38;;;15.90;79.00;;;;;;5049755;28;20028;-68
2022/10/30 05:39:10;;;;;;;7.10;4.70;;;15.90;78.90;;;;;;5049379;28;20017;-68
2022/10/30 05:41:36;;;;;;;6.20;3.97;;;15.90;79.00;;;;;;5050506;28;20036;-68
2022/10/30 05:44:02;;;;;;;8.00;4.78;;;15.80;79.10;;;;;;5050712;28;20021;-69
2022/10/30 05:46:27;;;;;;;6.80;4.47;;;15.80;79.20;;;;;;5050917;28;20532;-69
2022/10/30 05:48:53;;;;;;;6.72;4.38;;;15.80;79.30;;;;;;5050692;28;20593;-67
2022/10/30 05:51:18;;;;;;;9.82;4.22;;;15.80;79.30;;;;;;5050321;28;20060;-68
2022/10/30 05:53:46;;;;;;;8.63;4.75;;;15.70;79.20;;;;;;5050523;28;20022;-68
2022/10/30 05:56:11;;;;;;;7.22;4.50;;;15.80;79.20;;;;;;5049964;28;20021;-68
2022/10/30 05:58:37;;;;;;;7.97;4.18;;;15.70;79.10;;;;;;5050304;28;20442;-68
2022/10/30 06:01:06;;;;;;;10.63;4.68;;;15.70;79.10;;;;;;5050059;28;20036;-68
2022/10/30 06:03:32;;;;;;;7.20;4.18;;;15.60;79.20;;;;;;5050193;28;20033;-68
2022/10/30 06:05:57;;;;;;;7.50;4.32;;;15.60;79.30;;;;;;5050158;28;20104;-68
2022/10/30 06:08:23;;;;;;;8.18;4.65;;;15.60;79.30;;;;;;5049551;28;20048;-68
2022/10/30 06:10:48;;;;;;;8.75;4.47;;;15.50;79.40;;;;;;5048270;28;20387;-68
2022/10/30 06:13:14;;;;;;;6.50;4.18;;;15.50;79.60;;;;;;5049899;28;20498;-67
2022/10/30 06:15:40;;;;;;;7.72;4.60;;;15.40;79.60;;;;;;5049924;28;20070;-67
2022/10/30 06:18:05;;;;;;;8.82;4.57;;;15.40;79.80;;;;;;5049613;28;20028;-68
2022/10/30 06:20:31;;;;;;;7.65;4.55;;;15.30;79.90;;;;;;5050016;28;20029;-67
2022/10/30 06:23:02;;;;;;;8.10;4.72;;;15.30;80.00;;;;;;5049508;28;20032;-68
2022/10/30 06:25:33;;;;;;;7.75;4.53;;;15.30;80.20;;;;;;5049864;28;20037;-68
2022/10/30 06:27:58;;;;;;;8.85;4.70;;;15.20;80.30;;;;;;5049953;28;20392;-68
2022/10/30 06:30:25;;;;;;;7.93;4.53;;;15.20;80.30;;;;;;5049711;28;20029;-68
2022/10/30 06:33:01;;;;;;;6.53;4.35;;;15.20;80.30;;;;;;5049626;28;20052;-68
2022/10/30 06:35:28;;;;;;;7.15;4.35;;;15.10;80.30;;;;;;5049519;28;20897;-68
2022/10/30 06:37:55;;;;;;;8.43;4.38;;;15.20;80.40;;;;;;5049748;28;20100;-68
2022/10/30 06:40:22;;;;;;;6.65;4.75;;;15.20;80.40;;;;;;5047883;28;20075;-68
2022/10/30 06:42:50;;;;;;;7.93;4.20;;;15.20;80.30;;;;;;5048415;28;20027;-71
2022/10/30 06:45:18;;;;;;;7.72;4.32;;;15.20;80.10;;;;;;5049542;28;20494;-68
2022/10/30 06:47:44;;;;;;;7.10;4.55;;;15.30;79.90;;;;;;5049562;28;20112;-67
2022/10/30 06:50:12;;;;;;;9.50;4.38;;;15.20;79.80;;;;;;5049650;28;20523;-67
2022/10/30 06:52:37;;;;;;;7.95;4.13;;;15.20;79.90;;;;;;5049501;28;20542;-68
2022/10/30 06:55:04;;;;;;;9.48;4.78;;;15.20;80.00;;;;;;5047725;28;20017;-68
2022/10/30 06:57:29;;;;;;;9.68;4.57;;;15.20;80.00;;;;;;5048229;28;20532;-68
2022/10/30 06:59:55;;;;;;;6.75;4.43;;;15.30;80.00;;;;;;5047996;28;20017;-68
2022/10/30 07:02:21;;;;;;;8.75;4.78;;;15.30;79.90;;;;;;5049010;28;20028;-68
2022/10/30 07:04:46;;;;;;;7.43;4.93;;;15.30;80.00;;;;;;5049547;28;20033;-68
2022/10/30 07:07:13;;;;;;;8.30;5.03;;;15.30;80.20;;;;;;5049277;28;20507;-68
2022/10/30 07:09:39;;;;;;;9.65;4.93;;;15.30;80.20;;;;;;5049356;28;20033;-68
2022/10/30 07:12:06;;;;;;;8.07;4.57;;;15.40;80.20;;;;;;5049156;28;20052;-68
2022/10/30 07:14:31;;;;;;;6.00;4.40;;;15.50;80.20;;;;;;5049376;28;20106;-68
2022/10/30 07:16:57;;;;;;;8.07;4.43;;;15.50;80.00;;;;;;5049455;28;20098;-67
2022/10/30 07:19:23;;;;;;;6.70;4.53;;;15.60;79.90;;;;;;5049301;28;20457;-67
2022/10/30 07:21:48;;;;;;;7.88;4.80;;;15.70;79.80;;;;;;5052244;28;20029;-67
2022/10/30 07:24:14;;;;;;;9.73;5.20;;;15.70;79.70;;;;;;5052858;28;20143;-68
2022/10/30 07:26:39;;;;;;;10.27;5.28;;;15.70;79.70;;;;;;5052817;28;20040;-68
2022/10/30 07:29:05;;;;;;;7.95;4.40;;;15.80;79.60;;;;;;5052740;28;20082;-68
2022/10/30 07:31:31;;;;;;;8.35;4.97;;;15.80;79.50;;;;;;5052478;28;20090;-67
2022/10/30 07:33:56;;;;;;;8.25;4.97;;;15.80;79.70;;;;;;5052698;28;20518;-68
2022/10/30 07:36:22;;;;;;;10.40;4.80;;;15.90;79.70;;;;;;5052837;28;20013;-68
2022/10/30 07:38:49;;;;;;;7.78;4.55;;;16.00;79.70;;;;;;5052798;28;20021;-68
2022/10/30 07:41:17;;;;;;;8.18;4.72;;;16.00;79.90;;;;;;5051020;28;20530;-68
2022/10/30 07:43:43;;;;;;;7.80;5.20;;;16.10;79.50;;;;;;5052874;28;20170;-68
2022/10/30 07:46:08;;;;;;;9.77;5.45;;;16.10;79.50;;;;;;5052438;28;20033;-68
2022/10/30 07:48:34;;;;;;;9.93;5.55;;;16.10;79.30;;;;;;5051103;28;20024;-68
2022/10/30 07:51:00;;;;;;;12.07;6.78;;;16.20;79.30;;;;;;5052243;28;20029;-68
2022/10/30 07:53:25;;;;;;;10.60;5.55;;;16.20;79.40;;;;;;5052518;28;20017;-68
2022/10/30 07:55:51;;;;;;;10.65;5.55;;;16.20;79.30;;;;;;5052596;28;20049;-67
2022/10/30 07:58:16;;;;;;;8.38;5.18;;;16.30;79.30;;;;;;5053056;28;20053;-68
2022/10/30 08:00:42;;;;;;;9.43;5.80;;;16.30;79.20;;;;;;5051261;28;20387;-68
2022/10/30 08:03:09;;;;;;;7.45;5.45;;;16.30;79.90;;;;;;5052594;28;20514;-68
2022/10/30 08:05:35;;;;;;;10.02;5.10;;;16.30;79.30;;;;;;5051726;28;20052;-69
2022/10/30 08:08:00;;;;;;;8.07;5.28;;;16.30;79.30;;;;;;5052484;28;20052;-68
2022/10/30 08:10:26;;;;;;;7.45;5.30;;;16.40;79.30;;;;;;5052540;28;20490;-68
2022/10/30 08:12:52;;;;;;;7.20;4.80;;;16.40;79.20;;;;;;5052479;28;20037;-68
2022/10/30 08:15:18;;;;;;;9.68;4.95;;;16.50;79.20;;;;;;5052138;28;20707;-68
2022/10/30 08:17:48;;;;;;;7.97;5.22;;;16.60;79.10;;;;;;5052323;28;20032;-68
2022/10/30 08:20:15;;;;;;;12.15;6.70;;;16.70;79.00;;;;;;5052039;28;20017;-68
2022/10/30 08:22:48;;;;;;;11.30;6.30;;;16.70;78.90;;;;;;5052176;28;20100;-68
2022/10/30 08:25:15;;;;;;;12.82;7.18;;;16.70;79.00;;;;;;5051712;28;20043;-68
2022/10/30 08:27:51;;;;;;;10.60;6.40;;;16.70;79.00;;;;;;5051834;28;20036;-68
2022/10/30 08:30:17;;;;;;;7.07;5.18;;;16.70;78.90;;;;;;5051659;28;20025;-68
2022/10/30 08:32:42;;;;;;;11.70;6.03;;;16.80;78.90;;;;;;5051020;28;20033;-68
2022/10/30 08:35:08;;;;;;;10.02;5.95;;;16.80;78.80;;;;;;5051726;28;20079;-68
2022/10/30 08:37:34;;;;;;;10.20;6.30;;;16.90;78.70;;;;;;5051899;28;20434;-68
2022/10/30 08:39:59;;;;;;;11.48;6.38;;;16.90;78.70;;;;;;5051343;28;20464;-68
2022/10/30 08:42:25;;;;;;;10.45;6.60;;;17.00;78.60;;;;;;5051431;28;20033;-68
2022/10/30 08:44:51;;;;;;;9.60;5.72;;;17.00;78.60;;;;;;5047065;28;20094;-68
2022/10/30 08:47:16;;;;;;;11.52;7.70;;;17.00;78.40;;;;;;5049547;28;20063;-68
2022/10/30 08:49:42;;;;;;;10.35;6.28;;;17.00;78.40;;;;;;5050129;28;20027;-68
2022/10/30 08:52:08;;;;;;;12.57;7.30;;;17.10;78.50;;;;;;5050006;28;20029;-67
2022/10/30 08:54:34;;;;;;;12.52;6.50;;;17.10;78.40;;;;;;5049908;28;20651;-68
2022/10/30 08:56:59;;;;;;;10.18;6.53;;;17.20;78.40;;;;;;5049820;28;20037;-68
2022/10/30 08:59:25;;;;;;;13.02;7.45;;;17.30;78.90;;;;;;5049855;28;20390;-68
2022/10/30 09:01:51;;;;;;;11.68;6.53;;;17.30;78.20;;;;;;5049483;28;20021;-68
2022/10/30 09:04:17;;;;;;;12.05;7.18;;;17.40;78.10;;;;;;5049535;28;20025;-68
2022/10/30 09:06:42;;;;;;;13.20;6.32;;;17.30;78.60;;;;;;5049108;28;20414;-68
2022/10/30 09:09:08;;;;;;;16.92;8.70;;;17.40;77.90;;;;;;5049164;28;20037;-68
2022/10/30 09:11:33;;;;;;;11.52;6.95;;;17.40;77.60;;;;;;5049507;28;20025;-68
2022/10/30 09:13:59;;;;;;;13.52;8.07;;;17.40;77.60;;;;;;5050705;28;20017;-68
2022/10/30 09:16:24;;;;;;;13.80;7.57;;;17.50;77.60;;;;;;5050818;28;20025;-68
2022/10/30 09:18:50;;;;;;;12.00;7.95;;;17.50;77.50;;;;;;5050764;28;20017;-68
2022/10/30 09:21:15;;;;;;;12.48;7.25;;;17.50;77.40;;;;;;5049467;28;20137;-68
2022/10/30 09:23:42;;;;;;;12.88;6.78;;;17.60;77.40;;;;;;5050770;28;20506;-68
2022/10/30 09:26:08;;;;;;;10.60;6.45;;;17.60;77.20;;;;;;5048955;28;20025;-68
2022/10/30 09:28:34;;;;;;;12.55;7.13;;;17.60;77.10;;;;;;5050314;28;20051;-68
2022/10/30 09:31:00;;;;;;;10.90;6.35;;;17.60;77.10;;;;;;5048916;28;20049;-68
2022/10/30 09:33:26;;;;;;;10.35;6.43;;;17.70;77.00;;;;;;5050672;28;20096;-68
2022/10/30 09:35:51;;;;;;;10.50;5.90;;;17.80;76.90;;;;;;5049211;28;20108;-68
2022/10/30 09:38:17;;;;;;;9.10;5.78;;;17.90;76.80;;;;;;5050646;28;20021;-68
2022/10/30 09:40:48;;;;;;;8.48;5.10;;;18.00;76.60;;;;;;5050188;28;20130;-68
2022/10/30 09:43:37;;;;;;;10.15;6.72;;;18.10;76.50;;;;;;5050402;28;20660;-68
2022/10/30 09:46:34;;;;;;;11.95;7.15;;;18.10;76.40;;;;;;5034411;28;20017;-68
2022/10/30 09:49:14;;;;;;;10.68;6.72;;;18.20;76.20;;;;;;5050303;28;20017;-68
2022/10/30 09:51:45;;;;;;;13.75;6.53;;;18.20;76.00;;;;;;5048740;28;20502;-68
2022/10/30 09:54:11;;;;;;;12.02;6.47;;;18.30;75.90;;;;;;5049376;28;20037;-68
2022/10/30 09:56:46;;;;;;;12.52;8.18;;;18.30;75.70;;;;;;5049818;28;20013;-67
2022/10/30 09:59:36;;;;;;;19.23;10.23;;;18.40;75.30;;;;;;5048858;28;20029;-68
2022/10/30 10:02:20;;;;;;;12.73;7.45;;;18.40;74.90;;;;;;5048156;28;20025;-68
2022/10/30 10:04:51;;;;;;;12.27;8.45;;;18.40;75.00;;;;;;5049162;28;20025;-68
2022/10/30 10:07:35;;;;;;;12.23;7.93;;;18.40;75.00;;;;;;5049884;28;20032;-68
2022/10/30 10:10:06;;;;;;;14.93;7.40;;;18.50;75.10;;;;;;5049734;28;20060;-69
2022/10/30 10:12:48;;;;;;;14.32;7.78;;;18.60;75.00;;;;;;5047601;28;20017;-68
2022/10/30 10:15:26;;;;;;;12.18;7.85;;;18.50;74.80;;;;;;5047683;28;20574;-69
2022/10/30 10:17:53;;;;;;;12.80;8.32;;;18.50;75.00;;;;;;5046186;28;20032;-68
2022/10/30 10:20:35;;;;;;;14.88;8.35;;;18.50;75.00;;;;;;5048312;28;20028;-69
2022/10/30 10:23:11;;;;;;;15.52;10.00;;;18.60;75.00;;;;;;5046622;28;20021;-69
2022/10/30 10:25:38;;;;;;;15.85;9.43;;;18.60;74.80;;;;;;5047371;28;20430;-70
2022/10/30 10:28:37;;;;;;;13.15;7.50;;;18.60;74.60;;;;;;5049310;28;20017;-69
2022/10/30 10:31:24;;;;;;;11.30;7.38;;;18.70;74.70;;;;;;5031625;28;20036;-69
2022/10/30 10:33:55;;;;;;;12.52;6.95;;;18.80;74.60;;;;;;5049146;28;20037;-69
2022/10/30 10:36:34;;;;;;;11.90;7.53;;;18.90;74.50;;;;;;5048786;28;20048;-69
2022/10/30 10:39:13;;;;;;;13.18;8.43;;;19.00;74.40;;;;;;5047705;28;20032;-69
2022/10/30 10:41:49;;;;;;;18.00;7.78;;;19.00;74.30;;;;;;5047432;28;20029;-69
2022/10/30 10:44:23;;;;;;;12.32;7.85;;;19.00;74.10;;;;;;5047105;28;20025;-69
2022/10/30 10:47:09;;;;;;;11.80;7.30;;;19.10;74.00;;;;;;5049165;28;20668;-68
2022/10/30 10:50:02;;;;;;;12.57;6.97;;;19.10;74.00;;;;;;5046761;28;20025;-69
2022/10/30 10:52:38;;;;;;;11.95;6.95;;;19.10;73.90;;;;;;5047656;28;20071;-69
2022/10/30 10:55:16;;;;;;;12.25;8.43;;;19.20;73.90;;;;;;5049428;28;20104;-69
2022/10/30 10:57:43;;;;;;;14.73;8.70;;;19.20;73.90;;;;;;5051395;28;20025;-68
2022/10/30 11:00:21;;;;;;;12.98;8.35;;;19.20;73.80;;;;;;5047266;28;20092;-69
2022/10/30 11:02:55;;;;;;;15.95;8.43;;;19.20;73.70;;;;;;5041560;28;20031;-68
2022/10/30 11:05:28;;;;;;;13.07;8.48;;;19.30;73.60;;;;;;5047337;28;20025;-68
2022/10/30 11:08:00;;;;;;;14.73;8.45;;;19.30;73.60;;;;;;5052546;28;20086;-68
2022/10/30 11:10:25;;;;;;;15.20;8.27;;;19.30;73.50;;;;;;5050262;28;20637;-67
2022/10/30 11:12:51;;;;;;;9.95;5.80;;;19.40;73.50;;;;;;5052352;28;20024;-68
2022/10/30 11:15:37;;;;;;;11.85;7.25;;;19.60;73.40;;;;;;5052150;28;20017;-68
2022/10/30 11:18:06;;;;;;;11.65;7.80;;;19.60;73.10;;;;;;5049837;28;20668;-68
2022/10/30 11:20:52;;;;;;;11.10;6.78;;;19.70;73.10;;;;;;5052190;28;20658;-68
2022/10/30 11:23:32;;;;;;;13.18;6.65;;;19.70;72.80;;;;;;5052036;28;20079;-67
2022/10/30 11:25:57;;;;;;;8.05;5.40;;;19.80;72.70;;;;;;5051832;28;20024;-67
2022/10/30 11:28:40;;;;;;;10.43;6.03;;;19.90;72.70;;;;;;5052044;28;20029;-67
2022/10/30 11:31:36;;;;;;;10.73;6.55;;;20.00;72.40;;;;;;5050050;28;20025;-68
2022/10/30 11:34:17;;;;;;;14.15;8.10;;;20.10;72.40;;;;;;5049680;28;20025;-67
2022/10/30 11:36:44;;;;;;;16.38;8.50;;;20.10;72.10;;;;;;5048067;28;20108;-67
2022/10/30 11:39:16;;;;;;;14.30;8.35;;;20.30;71.50;;;;;;5051798;28;20017;-67
2022/10/30 11:41:42;;;;;;;13.38;8.07;;;20.80;70.40;;;;;;5048990;28;20714;-68
2022/10/30 11:44:09;;;;;;;11.25;7.55;;;21.40;68.70;;;;;;5051670;28;20079;-68
2022/10/30 11:46:36;;;;;;;16.00;7.55;;;21.90;67.40;;;;;;5051865;28;20013;-68
2022/10/30 11:49:02;;;;;;;14.63;8.23;;;22.20;65.80;;;;;;5048944;28;20564;-68
2022/10/30 11:51:37;;;;;;;12.32;6.80;;;21.70;66.10;;;;;;5050531;28;20029;-68
2022/10/30 11:54:05;;;;;;;11.80;7.07;;;21.70;67.10;;;;;;5049268;28;20017;-68
2022/10/30 11:56:33;;;;;;;8.38;5.90;;;22.00;66.30;;;;;;5051852;28;20766;-67
2022/10/30 11:59:01;;;;;;;11.50;7.00;;;21.90;66.60;;;;;;5051512;28;20025;-66
2022/10/30 12:01:33;;;;;;;13.32;6.15;;;21.60;67.40;;;;;;5051756;28;20506;-66
2022/10/30 12:04:14;;;;;;;;;;;21.40;68.20;;;;;;5052037;28;20029;-67
2022/10/30 12:06:39;;;;;;;13.82;7.35;;;21.40;68.80;;;;;;5050078;28;19905;-68
2022/10/30 12:09:11;;;;;;;8.82;5.80;;;21.40;68.40;;;;;;5050972;28;20033;-67
2022/10/30 12:11:38;;;;;;;9.88;5.63;;;21.50;68.70;;;;;;5050938;28;20036;-68
2022/10/30 12:14:04;;;;;;;10.13;6.38;;;21.60;68.80;;;;;;5050077;28;20017;-67
2022/10/30 12:16:31;;;;;;;11.65;6.57;;;21.60;68.30;;;;;;5051180;28;20027;-67
2022/10/30 12:19:05;;;;;;;10.63;5.72;;;21.60;68.20;;;;;;5051071;28;20095;-67
2022/10/30 12:21:38;;;;;;;13.27;6.38;;;21.70;68.20;;;;;;5050942;28;20021;-67
2022/10/30 12:24:12;;;;;;;7.80;4.85;;;21.70;68.00;;;;;;5048771;28;20458;-68
2022/10/30 12:26:39;;;;;;;12.38;6.88;;;21.70;68.20;;;;;;5050846;28;20021;-67
2022/10/30 12:29:12;;;;;;;13.52;6.32;;;21.80;68.00;;;;;;5050620;28;20694;-67
2022/10/30 12:31:45;;;;;;;13.48;6.65;;;21.80;67.70;;;;;;5050500;28;20105;-68
2022/10/30 12:34:27;;;;;;;9.55;5.70;;;21.80;67.40;;;;;;5050610;28;20009;-68
2022/10/30 12:36:59;;;;;;;;;;;21.90;67.50;;;;;;5050120;28;20092;-68
2022/10/30 12:39:34;;;;;;;8.20;4.85;;;21.90;67.40;;;;;;5046921;28;19912;-68
2022/10/30 12:42:11;;;;;;;8.68;5.60;;;22.00;67.50;;;;;;5050207;28;20025;-68
2022/10/30 12:45:06;;;;;;;10.07;5.65;;;22.00;67.30;;;;;;5050310;28;20490;-67
2022/10/30 12:47:57;;;;;;;11.20;7.20;;;22.00;67.20;;;;;;5048027;28;20040;-67
2022/10/30 12:50:36;;;;;;;13.53;6.90;;;21.90;66.70;;;;;;5047785;28;20024;-68
2022/10/30 12:53:17;;;;;;;11.18;6.95;;;21.80;66.80;;;;;;5047414;28;20021;-68